createdAt,value
2017-09-20T00:01:55.941Z,8.70
2017-09-20T00:04:27.341Z,8.60
2017-09-20T00:06:54.887Z,8.60
2017-09-20T00:09:22.418Z,8.60
2017-09-20T00:11:50.004Z,8.60
2017-09-20T00:14:17.613Z,8.60
2017-09-20T00:16:45.966Z,8.60
2017-09-20T00:19:13.502Z,8.60
2017-09-20T00:21:41.440Z,8.70
2017-09-20T00:24:08.991Z,8.70
2017-09-20T00:26:36.554Z,8.70
2017-09-20T00:29:04.142Z,8.70
2017-09-20T00:31:31.729Z,8.60
2017-09-20T00:33:59.277Z,8.60
2017-09-20T00:36:30.841Z,8.70
2017-09-20T00:38:58.374Z,8.70
2017-09-20T00:41:26.426Z,8.70
2017-09-20T00:43:54.001Z,8.70
2017-09-20T00:46:21.547Z,8.70
2017-09-20T00:48:49.510Z,8.70
2017-09-20T00:51:17.057Z,8.70
2017-09-20T00:53:45.375Z,8.70
2017-09-20T00:56:16.952Z,8.70
2017-09-20T00:58:44.494Z,8.70
2017-09-20T01:01:12.044Z,8.70
2017-09-20T01:03:39.624Z,8.70
2017-09-20T01:06:07.474Z,8.70
2017-09-20T01:08:35.022Z,8.60
2017-09-20T01:11:02.573Z,8.70
2017-09-20T01:13:30.213Z,8.60
2017-09-20T01:15:58.862Z,8.60
2017-09-20T01:18:26.407Z,8.60
2017-09-20T01:21:05.898Z,8.60
2017-09-20T01:23:36.259Z,8.60
2017-09-20T01:26:03.809Z,8.60
2017-09-20T01:28:31.354Z,8.60
2017-09-20T01:30:59.149Z,8.60
2017-09-20T01:33:26.685Z,8.60
2017-09-20T01:35:54.223Z,8.60
2017-09-20T01:38:27.793Z,8.60
2017-09-20T01:40:55.338Z,8.60
2017-09-20T01:43:23.305Z,8.60
2017-09-20T01:45:51.300Z,8.60
2017-09-20T01:48:18.858Z,8.60
2017-09-20T01:50:46.405Z,8.60
2017-09-20T01:53:14.102Z,8.60
2017-09-20T01:55:42.410Z,8.60
2017-09-20T01:58:09.994Z,8.50
2017-09-20T02:00:37.548Z,8.60
2017-09-20T02:03:05.498Z,8.60
2017-09-20T02:05:33.035Z,8.50
2017-09-20T02:08:01.372Z,8.50
2017-09-20T02:10:28.942Z,8.50
2017-09-20T02:12:56.554Z,8.50
2017-09-20T02:15:24.286Z,8.50
2017-09-20T02:17:51.828Z,8.50
2017-09-20T02:20:19.851Z,8.50
2017-09-20T02:22:47.393Z,8.50
2017-09-20T02:25:15.709Z,8.50
2017-09-20T02:27:43.674Z,8.50
2017-09-20T02:30:11.226Z,8.50
2017-09-20T02:32:38.770Z,8.50
2017-09-20T02:35:06.649Z,8.50
2017-09-20T02:37:34.194Z,8.50
2017-09-20T02:40:02.511Z,8.50
2017-09-20T02:42:30.285Z,8.50
2017-09-20T02:44:57.865Z,8.50
2017-09-20T02:47:25.438Z,8.50
2017-09-20T02:49:53.806Z,8.50
2017-09-20T02:52:21.346Z,8.50
2017-09-20T02:54:48.890Z,8.50
2017-09-20T02:57:16.673Z,8.50
2017-09-20T02:59:44.282Z,8.50
2017-09-20T03:02:11.837Z,8.50
2017-09-20T03:04:40.149Z,8.50
2017-09-20T03:07:08.237Z,8.50
2017-09-20T03:09:35.776Z,8.50
2017-09-20T03:12:03.321Z,8.50
2017-09-20T03:14:31.428Z,8.50
2017-09-20T03:16:59.367Z,8.50
2017-09-20T03:19:26.922Z,8.50
2017-09-20T03:21:54.510Z,8.50
2017-09-20T03:24:22.040Z,8.50
2017-09-20T03:26:49.622Z,8.50
2017-09-20T03:29:17.175Z,8.60
2017-09-20T03:31:44.818Z,8.60
2017-09-20T03:34:12.369Z,8.60
2017-09-20T03:36:40.994Z,8.60
2017-09-20T03:39:08.541Z,8.60
2017-09-20T03:41:36.085Z,8.60
2017-09-20T03:44:03.666Z,8.60
2017-09-20T03:46:31.253Z,8.60
2017-09-20T03:48:59.020Z,8.60
2017-09-20T03:51:26.561Z,8.60
2017-09-20T03:53:54.137Z,8.60
2017-09-20T03:56:21.681Z,8.60
2017-09-20T03:58:49.415Z,8.60
2017-09-20T04:01:16.953Z,8.60
2017-09-20T04:03:47.915Z,8.60
2017-09-20T04:06:15.593Z,8.60
2017-09-20T04:08:43.174Z,8.60
2017-09-20T04:11:11.157Z,8.60
2017-09-20T04:13:39.009Z,8.60
2017-09-20T04:16:06.561Z,8.60
2017-09-20T04:18:34.233Z,8.60
2017-09-20T04:21:01.765Z,8.60
2017-09-20T04:23:29.354Z,8.60
2017-09-20T04:25:56.891Z,8.60
2017-09-20T04:28:24.463Z,8.60
2017-09-20T04:30:52.040Z,8.60
2017-09-20T04:33:19.587Z,8.60
2017-09-20T04:35:47.125Z,8.60
2017-09-20T04:38:15.024Z,8.60
2017-09-20T04:40:42.569Z,8.50
2017-09-20T04:43:10.115Z,8.50
2017-09-20T04:45:37.854Z,8.60
2017-09-20T04:48:06.165Z,8.60
2017-09-20T04:50:33.713Z,8.50
2017-09-20T04:53:01.585Z,8.60
2017-09-20T04:55:29.254Z,8.60
2017-09-20T04:57:56.801Z,8.60
2017-09-20T05:00:24.477Z,8.60
2017-09-20T05:02:52.017Z,8.60
2017-09-20T05:05:19.879Z,8.60
2017-09-20T05:07:47.437Z,8.60
2017-09-20T05:10:14.977Z,8.60
2017-09-20T05:12:43.530Z,8.60
2017-09-20T05:15:14.113Z,8.60
2017-09-20T05:17:41.654Z,8.70
2017-09-20T05:20:10.507Z,8.70
2017-09-20T05:22:38.051Z,8.70
2017-09-20T05:25:05.585Z,8.70
2017-09-20T05:27:33.174Z,8.70
2017-09-20T05:30:00.910Z,8.70
2017-09-20T05:32:28.454Z,8.70
2017-09-20T05:34:56.797Z,8.70
2017-09-20T05:37:24.341Z,8.70
2017-09-20T05:39:51.917Z,8.80
2017-09-20T05:42:19.461Z,8.80
2017-09-20T05:44:50.102Z,8.80
2017-09-20T05:47:17.641Z,8.80
2017-09-20T05:49:45.188Z,8.80
2017-09-20T05:52:12.866Z,8.80
2017-09-20T05:54:40.407Z,8.80
2017-09-20T05:57:09.226Z,8.80
2017-09-20T05:59:36.769Z,8.80
2017-09-20T06:02:04.449Z,8.90
2017-09-20T06:04:32.077Z,8.90
2017-09-20T06:06:59.625Z,8.90
2017-09-20T06:09:27.213Z,8.90
2017-09-20T06:11:54.753Z,8.90
2017-09-20T06:14:22.336Z,8.90
2017-09-20T06:16:55.331Z,8.90
2017-09-20T06:19:23.070Z,8.90
2017-09-20T06:21:50.622Z,8.90
2017-09-20T06:24:18.205Z,8.90
2017-09-20T06:26:45.745Z,8.90
2017-09-20T06:29:13.329Z,9.00
2017-09-20T06:31:40.870Z,9.00
2017-09-20T06:34:08.765Z,9.00
2017-09-20T06:36:36.312Z,9.00
2017-09-20T06:39:03.862Z,9.00
2017-09-20T06:41:31.540Z,9.00
2017-09-20T06:43:59.086Z,9.00
2017-09-20T06:46:27.698Z,9.10
2017-09-20T06:48:55.254Z,9.10
2017-09-20T06:51:22.789Z,9.10
2017-09-20T06:53:51.710Z,9.10
2017-09-20T06:56:19.249Z,9.10
2017-09-20T06:58:48.371Z,9.20
2017-09-20T07:01:15.914Z,9.20
2017-09-20T07:03:43.453Z,9.20
2017-09-20T07:06:11.035Z,9.20
2017-09-20T07:08:39.833Z,9.20
2017-09-20T07:11:07.382Z,9.30
2017-09-20T07:13:34.961Z,9.30
2017-09-20T07:16:02.502Z,9.30
2017-09-20T07:18:32.118Z,9.30
2017-09-20T07:20:59.718Z,9.40
2017-09-20T07:23:28.030Z,9.40
2017-09-20T07:25:55.604Z,9.40
2017-09-20T07:28:23.142Z,9.40
2017-09-20T07:30:50.721Z,9.50
2017-09-20T07:33:18.657Z,9.50
2017-09-20T07:35:46.957Z,9.50
2017-09-20T07:38:14.490Z,9.50
2017-09-20T07:40:42.965Z,9.60
2017-09-20T07:43:11.505Z,9.60
2017-09-20T07:45:39.041Z,9.60
2017-09-20T07:48:06.618Z,9.60
2017-09-20T07:50:34.166Z,9.60
2017-09-20T07:53:01.824Z,9.70
2017-09-20T07:55:29.366Z,9.70
2017-09-20T07:57:57.018Z,9.70
2017-09-20T08:00:25.444Z,9.70
2017-09-20T08:02:55.577Z,9.70
2017-09-20T08:05:23.128Z,9.70
2017-09-20T08:07:50.673Z,9.70
2017-09-20T08:10:18.396Z,9.80
2017-09-20T08:12:46.698Z,9.80
2017-09-20T08:15:17.001Z,9.80
2017-09-20T08:17:45.647Z,10.00
2017-09-20T08:20:13.191Z,9.90
2017-09-20T08:22:40.750Z,10.00
2017-09-20T08:25:08.421Z,10.10
2017-09-20T08:27:35.960Z,10.20
2017-09-20T08:30:03.563Z,10.20
2017-09-20T08:32:31.105Z,10.30
2017-09-20T08:34:58.798Z,10.30
2017-09-20T08:37:27.162Z,10.40
2017-09-20T08:39:54.758Z,10.40
2017-09-20T08:42:23.193Z,10.50
2017-09-20T08:44:50.733Z,10.50
2017-09-20T08:47:18.322Z,10.50
2017-09-20T08:49:45.911Z,10.50
2017-09-20T08:52:14.246Z,10.60
2017-09-20T08:54:42.114Z,10.60
2017-09-20T08:57:09.660Z,10.60
2017-09-20T08:59:37.201Z,10.70
2017-09-20T09:02:06.396Z,10.70
2017-09-20T09:04:33.945Z,10.80
2017-09-20T09:07:01.502Z,10.80
2017-09-20T09:09:29.850Z,10.90
2017-09-20T09:11:57.432Z,10.90
2017-09-20T09:14:25.768Z,10.90
2017-09-20T09:16:53.486Z,10.90
2017-09-20T09:19:21.086Z,10.90
2017-09-20T09:21:48.666Z,10.90
2017-09-20T09:24:16.217Z,11.00
2017-09-20T09:26:43.885Z,11.10
2017-09-20T09:29:11.433Z,11.10
2017-09-20T09:31:39.608Z,11.10
2017-09-20T09:34:07.142Z,11.10
2017-09-20T09:36:34.690Z,11.20
2017-09-20T09:39:02.272Z,11.20
2017-09-20T09:41:29.868Z,11.30
2017-09-20T09:43:57.474Z,11.30
2017-09-20T09:46:25.581Z,11.40
2017-09-20T09:48:53.126Z,11.50
2017-09-20T09:51:20.673Z,11.50
2017-09-20T09:53:48.261Z,11.60
2017-09-20T09:56:15.818Z,11.70
2017-09-20T09:58:43.410Z,11.70
2017-09-20T10:01:10.956Z,11.80
2017-09-20T10:03:38.695Z,11.80
2017-09-20T10:06:06.249Z,11.90
2017-09-20T10:08:33.794Z,12.00
2017-09-20T10:11:01.382Z,12.00
2017-09-20T10:13:28.961Z,12.10
2017-09-20T10:15:56.515Z,12.10
2017-09-20T10:18:24.102Z,12.20
2017-09-20T10:20:52.418Z,12.40
2017-09-20T10:23:20.313Z,12.40
2017-09-20T10:25:47.856Z,12.50
2017-09-20T10:28:16.205Z,12.60
2017-09-20T10:30:44.515Z,12.70
2017-09-20T10:33:12.099Z,12.60
2017-09-20T10:35:39.689Z,12.70
2017-09-20T10:38:08.337Z,12.90
2017-09-20T10:40:36.030Z,12.80
2017-09-20T10:43:03.925Z,12.90
2017-09-20T10:45:31.562Z,13.00
2017-09-20T10:48:00.098Z,13.20
2017-09-20T10:50:27.688Z,13.20
2017-09-20T10:52:55.235Z,13.20
2017-09-20T10:55:22.897Z,13.30
2017-09-20T10:57:50.444Z,13.30
2017-09-20T11:00:21.645Z,13.30
2017-09-20T11:02:50.022Z,13.30
2017-09-20T11:05:18.369Z,13.40
2017-09-20T11:07:45.967Z,13.40
2017-09-20T11:10:14.286Z,13.40
2017-09-20T11:12:42.025Z,13.40
2017-09-20T11:15:10.850Z,13.50
2017-09-20T11:17:38.394Z,13.50
2017-09-20T11:20:05.986Z,13.50
2017-09-20T11:22:33.538Z,13.60
2017-09-20T11:25:02.317Z,13.60
2017-09-20T11:27:29.861Z,13.60
2017-09-20T11:29:57.749Z,13.70
2017-09-20T11:32:25.310Z,13.70
2017-09-20T11:34:52.953Z,13.80
2017-09-20T11:37:20.510Z,13.90
2017-09-20T11:39:48.121Z,14.00
2017-09-20T11:42:16.439Z,14.10
2017-09-20T11:44:44.281Z,14.10
2017-09-20T11:47:12.597Z,14.30
2017-09-20T11:49:40.177Z,14.30
2017-09-20T11:52:08.137Z,14.40
2017-09-20T11:54:35.681Z,14.50
2017-09-20T11:57:03.998Z,14.70
2017-09-20T11:59:31.861Z,14.70
2017-09-20T12:01:59.405Z,14.80
2017-09-20T12:04:26.949Z,14.90
2017-09-20T12:06:54.708Z,14.90
2017-09-20T12:09:22.253Z,14.90
2017-09-20T12:11:50.186Z,14.80
2017-09-20T12:14:18.506Z,14.80
2017-09-20T12:16:47.414Z,14.70
2017-09-20T12:19:17.853Z,14.70
2017-09-20T12:21:45.407Z,14.60
2017-09-20T12:24:12.990Z,14.60
2017-09-20T12:26:43.035Z,14.60
2017-09-20T12:29:11.362Z,14.60
2017-09-20T12:31:38.906Z,14.60
2017-09-20T12:34:08.177Z,14.70
2017-09-20T12:36:36.494Z,14.90
2017-09-20T12:39:04.066Z,14.90
2017-09-20T12:41:31.753Z,15.10
2017-09-20T12:43:59.572Z,15.20
2017-09-20T12:46:27.571Z,15.30
2017-09-20T12:48:55.126Z,15.40
2017-09-20T12:51:22.679Z,15.60
2017-09-20T12:53:50.267Z,15.70
2017-09-20T12:56:17.812Z,15.80
2017-09-20T12:58:45.366Z,15.90
2017-09-20T13:01:13.545Z,16.00
2017-09-20T13:03:41.098Z,16.10
2017-09-20T13:06:08.656Z,16.10
2017-09-20T13:08:36.424Z,16.10
2017-09-20T13:11:03.994Z,16.00
2017-09-20T13:13:31.557Z,15.90
2017-09-20T13:15:59.430Z,15.90
2017-09-20T13:18:27.173Z,15.90
2017-09-20T13:20:54.808Z,16.00
2017-09-20T13:23:22.393Z,16.00
2017-09-20T13:25:49.968Z,16.10
2017-09-20T13:28:17.809Z,16.20
2017-09-20T13:30:45.362Z,16.30
2017-09-20T13:33:13.669Z,16.30
2017-09-20T13:35:41.430Z,16.30
2017-09-20T13:38:08.970Z,16.30
2017-09-20T13:40:36.960Z,16.30
2017-09-20T13:43:04.501Z,16.40
2017-09-20T13:45:32.809Z,16.50
2017-09-20T13:48:00.776Z,16.50
2017-09-20T13:50:28.320Z,16.50
2017-09-20T13:52:55.884Z,16.50
2017-09-20T13:55:23.628Z,16.50
2017-09-20T13:57:51.938Z,16.60
2017-09-20T14:00:19.792Z,16.50
2017-09-20T14:02:47.329Z,16.50
2017-09-20T14:05:14.889Z,16.50
2017-09-20T14:07:46.185Z,16.50
2017-09-20T14:10:13.733Z,16.50
2017-09-20T14:12:41.874Z,16.40
2017-09-20T14:15:09.413Z,16.40
2017-09-20T14:17:37.400Z,16.40
2017-09-20T14:20:04.980Z,16.40
2017-09-20T14:22:32.831Z,16.50
2017-09-20T14:25:00.387Z,16.50
2017-09-20T14:27:27.942Z,16.50
2017-09-20T14:29:55.702Z,16.50
2017-09-20T14:32:23.263Z,16.60
2017-09-20T14:34:51.630Z,16.50
2017-09-20T14:37:19.182Z,16.50
2017-09-20T14:39:47.537Z,16.40
2017-09-20T14:42:15.086Z,16.40
2017-09-20T14:44:43.051Z,16.30
2017-09-20T14:47:10.602Z,16.30
2017-09-20T14:49:38.181Z,16.20
2017-09-20T14:52:05.723Z,16.10
2017-09-20T14:54:33.301Z,16.00
2017-09-20T14:57:00.846Z,16.00
2017-09-20T14:59:28.819Z,15.90
2017-09-20T15:01:56.370Z,15.90
2017-09-20T15:04:23.902Z,15.90
2017-09-20T15:06:51.613Z,15.90
2017-09-20T15:09:19.201Z,15.90
2017-09-20T15:11:47.512Z,15.90
2017-09-20T15:14:20.335Z,15.90
2017-09-20T15:16:47.927Z,15.90
2017-09-20T15:19:15.512Z,15.80
2017-09-20T15:21:43.414Z,15.80
2017-09-20T15:24:10.954Z,15.70
2017-09-20T15:26:38.491Z,15.70
2017-09-20T15:29:07.438Z,15.60
2017-09-20T15:31:35.029Z,15.60
2017-09-20T15:34:03.331Z,15.60
2017-09-20T15:36:30.949Z,15.50
2017-09-20T15:38:59.257Z,15.50
2017-09-20T15:41:27.157Z,15.50
2017-09-20T15:43:57.345Z,15.50
2017-09-20T15:46:25.661Z,15.50
2017-09-20T15:48:53.292Z,15.50
2017-09-20T15:51:21.030Z,15.50
2017-09-20T15:53:49.361Z,15.50
2017-09-20T15:56:16.914Z,15.50
2017-09-20T15:58:44.493Z,15.50
2017-09-20T16:01:12.314Z,15.50
2017-09-20T16:03:39.845Z,15.50
2017-09-20T16:06:08.159Z,15.40
2017-09-20T16:08:35.813Z,15.40
2017-09-20T16:11:08.726Z,15.40
2017-09-20T16:13:36.498Z,15.30
2017-09-20T16:16:04.033Z,15.30
2017-09-20T16:18:31.693Z,15.20
2017-09-20T16:20:59.237Z,15.20
2017-09-20T16:23:27.769Z,15.10
2017-09-20T16:25:55.322Z,15.10
2017-09-20T16:28:22.860Z,15.00
2017-09-20T16:30:50.461Z,14.90
2017-09-20T16:33:18.033Z,14.90
2017-09-20T16:35:45.578Z,14.80
2017-09-20T16:38:13.644Z,14.70
2017-09-20T16:40:41.194Z,14.70
2017-09-20T16:43:08.736Z,14.70
2017-09-20T16:45:41.591Z,14.50
2017-09-20T16:48:09.453Z,14.50
2017-09-20T16:50:37.764Z,14.50
2017-09-20T16:53:05.306Z,14.40
2017-09-20T16:55:32.960Z,14.40
2017-09-20T16:58:00.497Z,14.40
2017-09-20T17:00:28.802Z,14.30
2017-09-20T17:02:56.558Z,14.20
2017-09-20T17:05:25.074Z,14.20
2017-09-20T17:07:52.605Z,14.20
2017-09-20T17:10:20.154Z,14.10
2017-09-20T17:12:48.510Z,14.00
2017-09-20T17:15:16.053Z,14.00
2017-09-20T17:17:43.596Z,13.90
2017-09-20T17:20:11.647Z,13.80
2017-09-20T17:22:39.185Z,13.80
2017-09-20T17:25:07.502Z,13.70
2017-09-20T17:27:35.089Z,13.60
2017-09-20T17:30:02.638Z,13.60
2017-09-20T17:32:30.176Z,13.50
2017-09-20T17:34:57.904Z,13.50
2017-09-20T17:37:26.201Z,13.30
2017-09-20T17:39:53.806Z,13.30
2017-09-20T17:42:21.347Z,13.30
2017-09-20T17:44:48.918Z,13.20
2017-09-20T17:47:19.906Z,13.10
2017-09-20T17:49:48.201Z,13.00
2017-09-20T17:52:15.729Z,13.00
2017-09-20T17:54:45.809Z,12.90
2017-09-20T17:57:13.346Z,12.90
2017-09-20T17:59:40.894Z,12.90
2017-09-20T18:02:08.474Z,12.80
2017-09-20T18:04:36.018Z,12.70
2017-09-20T18:07:04.162Z,12.70
2017-09-20T18:09:32.468Z,12.50
2017-09-20T18:12:00.013Z,12.60
2017-09-20T18:14:28.642Z,12.50
2017-09-20T18:16:56.227Z,12.40
2017-09-20T18:19:23.765Z,12.40
2017-09-20T18:21:56.247Z,12.30
2017-09-20T18:24:23.837Z,12.30
2017-09-20T18:26:52.192Z,12.20
2017-09-20T18:29:19.734Z,12.20
2017-09-20T18:31:47.397Z,12.10
2017-09-20T18:34:15.270Z,12.10
2017-09-20T18:36:42.804Z,12.00
2017-09-20T18:39:10.346Z,12.00
2017-09-20T18:41:37.942Z,12.00
2017-09-20T18:44:05.488Z,11.90
2017-09-20T18:46:33.035Z,11.90
2017-09-20T18:49:01.551Z,11.80
2017-09-20T18:51:29.090Z,11.80
2017-09-20T18:53:56.635Z,11.80
2017-09-20T18:56:24.218Z,11.70
2017-09-20T18:58:51.760Z,11.70
2017-09-20T19:01:19.763Z,11.60
2017-09-20T19:03:47.308Z,11.60
2017-09-20T19:06:14.849Z,11.50
2017-09-20T19:08:44.182Z,11.50
2017-09-20T19:11:11.735Z,11.50
2017-09-20T19:13:39.284Z,11.50
2017-09-20T19:16:08.311Z,11.40
2017-09-20T19:18:35.861Z,11.40
2017-09-20T19:21:03.409Z,11.30
2017-09-20T19:23:31.059Z,11.30
2017-09-20T19:25:58.641Z,11.30
2017-09-20T19:28:26.186Z,11.20
2017-09-20T19:30:53.769Z,11.20
2017-09-20T19:33:21.354Z,11.10
2017-09-20T19:35:49.670Z,11.10
2017-09-20T19:38:17.305Z,11.00
2017-09-20T19:40:45.625Z,11.00
2017-09-20T19:43:13.304Z,11.00
2017-09-20T19:45:40.896Z,11.00
2017-09-20T19:48:09.250Z,10.90
2017-09-20T19:50:37.402Z,10.80
2017-09-20T19:53:04.951Z,10.80
2017-09-20T19:55:32.538Z,10.80
2017-09-20T19:58:00.125Z,10.80
2017-09-20T20:00:27.963Z,10.70
2017-09-20T20:02:55.517Z,10.70
2017-09-20T20:05:23.114Z,10.60
2017-09-20T20:07:51.475Z,10.60
2017-09-20T20:10:19.625Z,10.60
2017-09-20T20:12:47.161Z,10.60
2017-09-20T20:15:14.709Z,10.60
2017-09-20T20:17:47.649Z,10.50
2017-09-20T20:20:16.109Z,10.50
2017-09-20T20:22:43.794Z,10.50
2017-09-20T20:25:11.632Z,10.50
2017-09-20T20:27:39.178Z,10.40
2017-09-20T20:30:06.960Z,10.40
2017-09-20T20:32:34.558Z,10.40
2017-09-20T20:35:02.605Z,10.40
2017-09-20T20:37:30.966Z,10.30
2017-09-20T20:39:58.546Z,10.20
2017-09-20T20:42:26.094Z,10.20
2017-09-20T20:44:53.680Z,10.20
2017-09-20T20:47:21.222Z,10.20
2017-09-20T20:49:51.638Z,10.10
2017-09-20T20:52:20.923Z,10.10
2017-09-20T20:54:48.677Z,10.10
2017-09-20T20:57:21.016Z,10.00
2017-09-20T20:59:48.961Z,10.00
2017-09-20T21:02:16.590Z,10.00
2017-09-20T21:04:46.699Z,10.00
2017-09-20T21:07:15.267Z,9.90
2017-09-20T21:09:44.165Z,9.90
2017-09-20T21:12:14.794Z,9.90
2017-09-20T21:14:44.411Z,9.90
2017-09-20T21:17:14.352Z,9.80
2017-09-20T21:19:44.162Z,9.70
2017-09-20T21:22:17.279Z,9.70
2017-09-20T21:24:45.174Z,9.70
2017-09-20T21:27:13.565Z,9.60
2017-09-20T21:29:41.431Z,9.60
2017-09-20T21:32:09.014Z,9.60
2017-09-20T21:34:36.655Z,9.60
2017-09-20T21:37:05.026Z,9.60
2017-09-20T21:39:33.338Z,9.50
2017-09-20T21:42:01.046Z,9.50
2017-09-20T21:44:30.153Z,9.50
2017-09-20T21:46:57.699Z,9.40
2017-09-20T21:49:25.251Z,9.30
2017-09-20T21:51:54.213Z,9.30
2017-09-20T21:54:21.769Z,9.30
2017-09-20T21:56:49.313Z,9.30
2017-09-20T21:59:17.664Z,9.30
2017-09-20T22:01:45.247Z,9.30
2017-09-20T22:04:13.601Z,9.30
2017-09-20T22:06:41.657Z,9.30
2017-09-20T22:09:09.211Z,9.20
2017-09-20T22:11:36.753Z,9.20
2017-09-20T22:14:05.173Z,9.10
2017-09-20T22:16:44.669Z,9.10
2017-09-20T22:19:24.003Z,9.10
2017-09-20T22:22:05.022Z,9.10
2017-09-20T22:24:44.573Z,9.10
2017-09-20T22:27:12.931Z,9.00
2017-09-20T22:29:43.351Z,9.00
2017-09-20T22:32:11.195Z,9.00
2017-09-20T22:34:38.797Z,9.00
2017-09-20T22:37:06.415Z,9.00
2017-09-20T22:39:34.174Z,9.00
2017-09-20T22:42:01.955Z,8.90
2017-09-20T22:44:30.203Z,8.90
2017-09-20T22:46:57.771Z,8.90
2017-09-20T22:49:25.758Z,8.90
2017-09-20T22:51:53.352Z,8.80
2017-09-20T22:54:20.956Z,8.80
2017-09-20T22:56:48.516Z,8.70
2017-09-20T22:59:16.351Z,8.70
2017-09-20T23:01:43.903Z,8.60
2017-09-20T23:04:11.901Z,8.60
2017-09-20T23:06:40.219Z,8.50
2017-09-20T23:09:07.770Z,8.50
2017-09-20T23:11:35.348Z,8.50
2017-09-20T23:14:02.936Z,8.60
2017-09-20T23:16:31.251Z,8.50
2017-09-20T23:18:58.902Z,8.50
2017-09-20T23:21:27.223Z,8.30
2017-09-20T23:23:54.978Z,8.40
2017-09-20T23:26:22.572Z,8.40
2017-09-20T23:28:50.169Z,8.40
2017-09-20T23:31:17.736Z,8.40
2017-09-20T23:33:45.522Z,8.40
2017-09-20T23:36:13.068Z,8.40
2017-09-20T23:38:40.990Z,8.40
2017-09-20T23:41:08.545Z,8.40
2017-09-20T23:43:36.094Z,8.40
2017-09-20T23:46:06.412Z,8.30
2017-09-20T23:48:34.283Z,8.30
2017-09-20T23:51:01.830Z,8.30
2017-09-20T23:53:29.370Z,8.30
2017-09-20T23:55:57.123Z,8.30
2017-09-20T23:58:24.670Z,8.30
